General Aviation Weather

Text Reports

Enter one or more of the following location identifiers separated by a space:

Zip Code, Four-Character ICAO or Three-Character IATA airport codes.

METAR - Aviation Routine Weather Report
KCUL - Carmi, Illinois
Updated at 5:15 AM GMT on October 21, 2014 (12:15 AM CDT):
METAR KCUL 210515Z AUTO 28004KT 10SM CLR 10/08 A2999 RMK AO2 LTG DSNT E T01000076
TAF - Terminal Area Forecast
KCUL - Carmi, Illinois
Updated at 5:15 AM GMT on October 21, 2014 (12:15 AM CDT):
No TAF is currently available for this location.
Decoded:
No decoded TAF is available.
PIREP - Pilot Weather Report
KCUL - Carmi, Illinois
Updated at 5:15 AM GMT on October 21, 2014 (12:15 AM CDT):
No PIREP is currently available for this location.
AIRMET - Airmens Meteorological Information
KCUL - Carmi, Illinois
Updated at 5:15 AM GMT on October 21, 2014 (12:15 AM CDT):
No AIRMET is currently available for this location.
SIGMET - Significant Meteorological Information
KCUL - Carmi, Illinois
Updated at 5:15 AM GMT on October 21, 2014 (12:15 AM CDT):
No SIGMET is currently available for this location.
NOTAM - Notice to Airmen
KCUL - Carmi, Illinois
Updated at 5:15 AM GMT on October 21, 2014 (12:15 AM CDT):
No NOTAM is currently available for this location.
Forecast Area
KCUL - Carmi, Illinois
Updated at 5:15 AM GMT on October 21, 2014 (12:15 AM CDT):
No NOTAM is currently available for this location.
Aviation Weather Maps